sensor_id;sensor_type;location;lat;lon;timestamp;pressure;altitude;pressure_sealevel;temperature;humidity
77017;BME280;65949;53.132;17.930;2024-03-29T00:01:37;99269.98;;;8.30;69.56
77017;BME280;65949;53.132;17.930;2024-03-29T00:04:04;99265.72;;;8.25;69.72
77017;BME280;65949;53.132;17.930;2024-03-29T00:06:31;99266.19;;;8.21;70.28
77017;BME280;65949;53.132;17.930;2024-03-29T00:08:57;99275.05;;;8.15;69.90
77017;BME280;65949;53.132;17.930;2024-03-29T00:11:24;99282.08;;;8.11;70.14
77017;BME280;65949;53.132;17.930;2024-03-29T00:13:50;99290.86;;;8.06;70.53
77017;BME280;65949;53.132;17.930;2024-03-29T00:16:17;99299.19;;;8.03;70.57
77017;BME280;65949;53.132;17.930;2024-03-29T00:18:43;99302.01;;;8.00;70.63
77017;BME280;65949;53.132;17.930;2024-03-29T00:21:10;99306.69;;;7.97;70.60
77017;BME280;65949;53.132;17.930;2024-03-29T00:23:37;99309.24;;;7.94;70.73
77017;BME280;65949;53.132;17.930;2024-03-29T00:26:03;99315.48;;;7.92;70.75
77017;BME280;65949;53.132;17.930;2024-03-29T00:28:30;99319.86;;;7.90;70.83
77017;BME280;65949;53.132;17.930;2024-03-29T00:30:56;99333.66;;;7.88;71.22
77017;BME280;65949;53.132;17.930;2024-03-29T00:33:23;99340.88;;;7.86;70.99
77017;BME280;65949;53.132;17.930;2024-03-29T00:35:50;99338.83;;;7.83;71.29
77017;BME280;65949;53.132;17.930;2024-03-29T00:38:17;99340.54;;;7.81;71.01
77017;BME280;65949;53.132;17.930;2024-03-29T00:40:43;99347.98;;;7.78;71.04
77017;BME280;65949;53.132;17.930;2024-03-29T00:43:10;99358.60;;;7.75;71.28
77017;BME280;65949;53.132;17.930;2024-03-29T00:45:36;99366.18;;;7.74;71.26
77017;BME280;65949;53.132;17.930;2024-03-29T00:48:03;99365.68;;;7.72;71.39
77017;BME280;65949;53.132;17.930;2024-03-29T00:50:30;99372.54;;;7.69;71.50
77017;BME280;65949;53.132;17.930;2024-03-29T00:52:57;99374.62;;;7.66;71.30
77017;BME280;65949;53.132;17.930;2024-03-29T00:55:23;99379.29;;;7.62;71.40
77017;BME280;65949;53.132;17.930;2024-03-29T00:57:50;99381.80;;;7.58;71.63
77017;BME280;65949;53.132;17.930;2024-03-29T01:00:16;99384.86;;;7.54;71.91
77017;BME280;65949;53.132;17.930;2024-03-29T01:02:43;99391.20;;;7.48;72.25
77017;BME280;65949;53.132;17.930;2024-03-29T01:05:10;99393.64;;;7.43;72.06
77017;BME280;65949;53.132;17.930;2024-03-29T01:07:40;99399.09;;;7.40;72.41
77017;BME280;65949;53.132;17.930;2024-03-29T01:10:08;99409.04;;;7.35;72.49
77017;BME280;65949;53.132;17.930;2024-03-29T01:12:37;99422.27;;;7.31;72.52
77017;BME280;65949;53.132;17.930;2024-03-29T01:15:05;99427.35;;;7.26;72.29
77017;BME280;65949;53.132;17.930;2024-03-29T01:17:32;99433.82;;;7.21;72.95
77017;BME280;65949;53.132;17.930;2024-03-29T01:19:59;99435.42;;;7.18;72.82
77017;BME280;65949;53.132;17.930;2024-03-29T01:22:26;99442.94;;;7.15;72.79
77017;BME280;65949;53.132;17.930;2024-03-29T01:24:52;99447.50;;;7.11;73.08
77017;BME280;65949;53.132;17.930;2024-03-29T01:27:19;99453.30;;;7.07;73.11
77017;BME280;65949;53.132;17.930;2024-03-29T01:29:46;99462.16;;;7.05;73.24
77017;BME280;65949;53.132;17.930;2024-03-29T01:32:12;99465.69;;;7.03;73.32
77017;BME280;65949;53.132;17.930;2024-03-29T01:34:39;99474.33;;;6.99;73.28
77017;BME280;65949;53.132;17.930;2024-03-29T01:37:05;99478.56;;;6.97;73.36
77017;BME280;65949;53.132;17.930;2024-03-29T01:39:32;99483.13;;;6.93;73.50
77017;BME280;65949;53.132;17.930;2024-03-29T01:41:58;99493.95;;;6.89;73.79
77017;BME280;65949;53.132;17.930;2024-03-29T01:44:25;99505.89;;;6.85;74.10
77017;BME280;65949;53.132;17.930;2024-03-29T01:46:51;99510.91;;;6.82;74.18
77017;BME280;65949;53.132;17.930;2024-03-29T01:49:18;99517.17;;;6.80;74.22
77017;BME280;65949;53.132;17.930;2024-03-29T01:51:45;99520.12;;;6.77;74.09
77017;BME280;65949;53.132;17.930;2024-03-29T01:54:12;99526.85;;;6.77;74.20
77017;BME280;65949;53.132;17.930;2024-03-29T01:56:39;99532.95;;;6.75;74.46
77017;BME280;65949;53.132;17.930;2024-03-29T01:59:13;99540.36;;;6.73;74.50
77017;BME280;65949;53.132;17.930;2024-03-29T02:01:41;99543.87;;;6.70;74.41
77017;BME280;65949;53.132;17.930;2024-03-29T02:04:09;99550.95;;;6.68;74.59
77017;BME280;65949;53.132;17.930;2024-03-29T02:06:38;99550.10;;;6.65;74.70
77017;BME280;65949;53.132;17.930;2024-03-29T02:09:05;99555.80;;;6.62;74.89
77017;BME280;65949;53.132;17.930;2024-03-29T02:11:32;99558.31;;;6.59;74.83
77017;BME280;65949;53.132;17.930;2024-03-29T02:13:59;99563.79;;;6.56;74.97
77017;BME280;65949;53.132;17.930;2024-03-29T02:16:25;99566.73;;;6.55;74.92
77017;BME280;65949;53.132;17.930;2024-03-29T02:18:52;99569.89;;;6.52;75.12
77017;BME280;65949;53.132;17.930;2024-03-29T02:21:18;99571.08;;;6.51;75.00
77017;BME280;65949;53.132;17.930;2024-03-29T02:23:47;99578.05;;;6.51;75.10
77017;BME280;65949;53.132;17.930;2024-03-29T02:26:14;99578.61;;;6.50;75.12
77017;BME280;65949;53.132;17.930;2024-03-29T02:28:40;99580.20;;;6.48;75.08
77017;BME280;65949;53.132;17.930;2024-03-29T02:31:07;99582.88;;;6.45;75.31
77017;BME280;65949;53.132;17.930;2024-03-29T02:33:34;99586.70;;;6.42;75.11
77017;BME280;65949;53.132;17.930;2024-03-29T02:36:01;99584.88;;;6.40;75.32
77017;BME280;65949;53.132;17.930;2024-03-29T02:38:27;99583.69;;;6.40;75.49
77017;BME280;65949;53.132;17.930;2024-03-29T02:40:54;99589.79;;;6.38;75.62
77017;BME280;65949;53.132;17.930;2024-03-29T02:43:20;99589.93;;;6.37;75.54
77017;BME280;65949;53.132;17.930;2024-03-29T02:45:47;99593.09;;;6.37;75.70
77017;BME280;65949;53.132;17.930;2024-03-29T02:48:13;99597.48;;;6.37;75.73
77017;BME280;65949;53.132;17.930;2024-03-29T02:50:40;99598.21;;;6.36;75.58
77017;BME280;65949;53.132;17.930;2024-03-29T02:53:06;99602.14;;;6.36;75.52
77017;BME280;65949;53.132;17.930;2024-03-29T02:55:33;99605.91;;;6.36;75.63
77017;BME280;65949;53.132;17.930;2024-03-29T02:57:59;99604.27;;;6.35;75.74
77017;BME280;65949;53.132;17.930;2024-03-29T03:00:26;99601.11;;;6.38;75.64
77017;BME280;65949;53.132;17.930;2024-03-29T03:02:53;99607.15;;;6.43;75.32
77017;BME280;65949;53.132;17.930;2024-03-29T03:05:20;99607.22;;;6.45;75.40
77017;BME280;65949;53.132;17.930;2024-03-29T03:07:47;99615.27;;;6.49;75.24
77017;BME280;65949;53.132;17.930;2024-03-29T03:10:32;99615.77;;;6.51;75.45
77017;BME280;65949;53.132;17.930;2024-03-29T03:13:17;99613.81;;;6.50;75.04
77017;BME280;65949;53.132;17.930;2024-03-29T03:15:44;99619.36;;;6.49;75.08
77017;BME280;65949;53.132;17.930;2024-03-29T03:18:10;99617.42;;;6.47;75.34
77017;BME280;65949;53.132;17.930;2024-03-29T03:20:38;99620.17;;;6.48;75.23
77017;BME280;65949;53.132;17.930;2024-03-29T03:23:06;99625.65;;;6.47;75.30
77017;BME280;65949;53.132;17.930;2024-03-29T03:25:33;99628.08;;;6.46;75.23
77017;BME280;65949;53.132;17.930;2024-03-29T03:27:59;99628.79;;;6.43;75.45
77017;BME280;65949;53.132;17.930;2024-03-29T03:30:26;99626.55;;;6.40;75.37
77017;BME280;65949;53.132;17.930;2024-03-29T03:32:52;99624.26;;;6.38;75.63
77017;BME280;65949;53.132;17.930;2024-03-29T03:35:19;99621.39;;;6.35;75.66
77017;BME280;65949;53.132;17.930;2024-03-29T03:37:45;99624.27;;;6.32;75.89
77017;BME280;65949;53.132;17.930;2024-03-29T03:40:12;99630.14;;;6.29;75.90
77017;BME280;65949;53.132;17.930;2024-03-29T03:42:38;99635.09;;;6.26;75.91
77017;BME280;65949;53.132;17.930;2024-03-29T03:45:05;99635.27;;;6.23;75.97
77017;BME280;65949;53.132;17.930;2024-03-29T03:47:32;99638.25;;;6.20;75.89
77017;BME280;65949;53.132;17.930;2024-03-29T03:49:59;99633.27;;;6.18;75.98
77017;BME280;65949;53.132;17.930;2024-03-29T03:52:25;99633.54;;;6.14;76.02
77017;BME280;65949;53.132;17.930;2024-03-29T03:54:52;99641.60;;;6.11;76.05
77017;BME280;65949;53.132;17.930;2024-03-29T03:57:18;99649.14;;;6.09;76.21
77017;BME280;65949;53.132;17.930;2024-03-29T03:59:45;99643.79;;;6.07;76.28
77017;BME280;65949;53.132;17.930;2024-03-29T04:02:11;99643.35;;;6.03;76.15
77017;BME280;65949;53.132;17.930;2024-03-29T04:04:38;99643.80;;;6.01;76.30
77017;BME280;65949;53.132;17.930;2024-03-29T04:07:04;99646.48;;;5.99;76.57
77017;BME280;65949;53.132;17.930;2024-03-29T04:09:31;99651.16;;;5.97;76.45
77017;BME280;65949;53.132;17.930;2024-03-29T04:11:57;99654.64;;;5.93;76.67
77017;BME280;65949;53.132;17.930;2024-03-29T04:14:24;99658.82;;;5.91;76.72
77017;BME280;65949;53.132;17.930;2024-03-29T04:16:51;99663.40;;;5.88;76.73
77017;BME280;65949;53.132;17.930;2024-03-29T04:19:17;99665.91;;;5.87;76.76
77017;BME280;65949;53.132;17.930;2024-03-29T04:21:43;99668.65;;;5.86;76.71
77017;BME280;65949;53.132;17.930;2024-03-29T04:24:10;99662.84;;;5.85;76.84
77017;BME280;65949;53.132;17.930;2024-03-29T04:26:36;99654.95;;;5.82;77.05
77017;BME280;65949;53.132;17.930;2024-03-29T04:29:05;99659.83;;;5.80;76.97
77017;BME280;65949;53.132;17.930;2024-03-29T04:31:31;99658.21;;;5.79;77.20
77017;BME280;65949;53.132;17.930;2024-03-29T04:33:58;99658.47;;;5.78;76.98
77017;BME280;65949;53.132;17.930;2024-03-29T04:36:24;99673.71;;;5.78;77.17
77017;BME280;65949;53.132;17.930;2024-03-29T04:38:51;99672.31;;;5.77;77.17
77017;BME280;65949;53.132;17.930;2024-03-29T04:41:18;99678.23;;;5.76;77.31
77017;BME280;65949;53.132;17.930;2024-03-29T04:43:44;99683.62;;;5.76;77.36
77017;BME280;65949;53.132;17.930;2024-03-29T04:46:12;99687.64;;;5.76;77.27
77017;BME280;65949;53.132;17.930;2024-03-29T04:48:41;99685.33;;;5.75;77.36
77017;BME280;65949;53.132;17.930;2024-03-29T04:51:09;99687.60;;;5.75;77.33
77017;BME280;65949;53.132;17.930;2024-03-29T04:53:36;99686.81;;;5.76;77.55
77017;BME280;65949;53.132;17.930;2024-03-29T04:56:04;99689.88;;;5.77;77.58
77017;BME280;65949;53.132;17.930;2024-03-29T04:58:31;99690.25;;;5.77;77.53
77017;BME280;65949;53.132;17.930;2024-03-29T05:00:58;99692.76;;;5.78;77.66
77017;BME280;65949;53.132;17.930;2024-03-29T05:03:25;99699.42;;;5.79;77.69
77017;BME280;65949;53.132;17.930;2024-03-29T05:05:52;99700.02;;;5.80;77.62
77017;BME280;65949;53.132;17.930;2024-03-29T05:08:20;99689.35;;;5.83;77.81
77017;BME280;65949;53.132;17.930;2024-03-29T05:10:49;99682.14;;;5.86;77.83
77017;BME280;65949;53.132;17.930;2024-03-29T05:13:19;99696.19;;;5.89;77.91
77017;BME280;65949;53.132;17.930;2024-03-29T05:15:48;99701.96;;;5.92;77.78
77017;BME280;65949;53.132;17.930;2024-03-29T05:18:15;99710.89;;;5.95;77.85
77017;BME280;65949;53.132;17.930;2024-03-29T05:20:41;99705.44;;;5.99;77.80
77017;BME280;65949;53.132;17.930;2024-03-29T05:23:14;99696.05;;;6.04;77.95
77017;BME280;65949;53.132;17.930;2024-03-29T05:25:41;99684.10;;;6.07;77.76
77017;BME280;65949;53.132;17.930;2024-03-29T05:28:09;99687.02;;;6.12;77.66
77017;BME280;65949;53.132;17.930;2024-03-29T05:30:35;99692.80;;;6.15;77.86
77017;BME280;65949;53.132;17.930;2024-03-29T05:33:03;99692.44;;;6.20;77.88
77017;BME280;65949;53.132;17.930;2024-03-29T05:35:30;99691.96;;;6.26;77.63
77017;BME280;65949;53.132;17.930;2024-03-29T05:37:57;99693.86;;;6.51;77.47
77017;BME280;65949;53.132;17.930;2024-03-29T05:40:24;99700.73;;;7.13;75.91
77017;BME280;65949;53.132;17.930;2024-03-29T05:42:54;99706.55;;;7.64;75.12
77017;BME280;65949;53.132;17.930;2024-03-29T05:45:28;99715.55;;;8.05;74.27
77017;BME280;65949;53.132;17.930;2024-03-29T05:47:57;99716.32;;;8.34;73.44
77017;BME280;65949;53.132;17.930;2024-03-29T05:50:25;99723.02;;;8.61;72.94
77017;BME280;65949;53.132;17.930;2024-03-29T05:52:52;99729.43;;;8.75;72.45
77017;BME280;65949;53.132;17.930;2024-03-29T05:55:19;99738.80;;;8.71;72.60
77017;BME280;65949;53.132;17.930;2024-03-29T05:57:45;99736.63;;;8.54;72.57
77017;BME280;65949;53.132;17.930;2024-03-29T06:00:13;99741.41;;;8.41;72.84
77017;BME280;65949;53.132;17.930;2024-03-29T06:02:43;99737.15;;;8.29;72.88
77017;BME280;65949;53.132;17.930;2024-03-29T06:05:14;99749.64;;;8.22;72.96
77017;BME280;65949;53.132;17.930;2024-03-29T06:07:41;99750.03;;;8.17;72.96
77017;BME280;65949;53.132;17.930;2024-03-29T06:10:07;99757.14;;;8.15;73.07
77017;BME280;65949;53.132;17.930;2024-03-29T06:12:36;99760.15;;;8.17;72.91
77017;BME280;65949;53.132;17.930;2024-03-29T06:15:05;99764.77;;;8.18;72.80
77017;BME280;65949;53.132;17.930;2024-03-29T06:17:51;99759.91;;;8.21;72.73
77017;BME280;65949;53.132;17.930;2024-03-29T06:20:18;99745.97;;;8.27;72.77
77017;BME280;65949;53.132;17.930;2024-03-29T06:22:45;99744.56;;;8.32;72.38
77017;BME280;65949;53.132;17.930;2024-03-29T06:25:11;99755.73;;;8.37;72.38
77017;BME280;65949;53.132;17.930;2024-03-29T06:27:38;99759.38;;;8.44;72.30
77017;BME280;65949;53.132;17.930;2024-03-29T06:30:05;99762.59;;;8.51;72.28
77017;BME280;65949;53.132;17.930;2024-03-29T06:32:34;99762.85;;;8.59;72.00
77017;BME280;65949;53.132;17.930;2024-03-29T06:35:01;99768.45;;;8.69;71.52
77017;BME280;65949;53.132;17.930;2024-03-29T06:37:28;99770.34;;;8.79;71.28
77017;BME280;65949;53.132;17.930;2024-03-29T06:39:55;99767.19;;;8.87;70.95
77017;BME280;65949;53.132;17.930;2024-03-29T06:42:22;99774.40;;;8.99;70.60
77017;BME280;65949;53.132;17.930;2024-03-29T06:44:49;99771.95;;;9.10;70.37
77017;BME280;65949;53.132;17.930;2024-03-29T06:47:16;99758.04;;;9.22;70.29
77017;BME280;65949;53.132;17.930;2024-03-29T06:49:42;99759.41;;;9.32;69.79
77017;BME280;65949;53.132;17.930;2024-03-29T06:52:09;99758.33;;;9.44;69.51
77017;BME280;65949;53.132;17.930;2024-03-29T06:54:35;99751.02;;;9.54;69.35
77017;BME280;65949;53.132;17.930;2024-03-29T06:57:02;99743.88;;;9.67;68.78
77017;BME280;65949;53.132;17.930;2024-03-29T06:59:29;99736.14;;;9.81;68.50
77017;BME280;65949;53.132;17.930;2024-03-29T07:01:55;99733.83;;;9.94;68.28
77017;BME280;65949;53.132;17.930;2024-03-29T07:04:23;99729.15;;;10.06;67.91
77017;BME280;65949;53.132;17.930;2024-03-29T07:06:53;99728.72;;;10.16;67.80
77017;BME280;65949;53.132;17.930;2024-03-29T07:09:21;99732.36;;;10.25;67.23
77017;BME280;65949;53.132;17.930;2024-03-29T07:11:50;99738.48;;;10.34;66.91
77017;BME280;65949;53.132;17.930;2024-03-29T07:14:18;99751.70;;;10.44;66.12
77017;BME280;65949;53.132;17.930;2024-03-29T07:16:45;99762.80;;;10.50;65.32
77017;BME280;65949;53.132;17.930;2024-03-29T07:19:12;99768.00;;;10.57;65.37
77017;BME280;65949;53.132;17.930;2024-03-29T07:21:40;99767.09;;;10.67;64.81
77017;BME280;65949;53.132;17.930;2024-03-29T07:24:07;99764.35;;;10.77;64.88
77017;BME280;65949;53.132;17.930;2024-03-29T07:26:33;99775.82;;;10.87;64.94
77017;BME280;65949;53.132;17.930;2024-03-29T07:29:00;99779.38;;;10.93;63.68
77017;BME280;65949;53.132;17.930;2024-03-29T07:31:27;99786.84;;;10.98;63.33
77017;BME280;65949;53.132;17.930;2024-03-29T07:33:54;99785.05;;;10.98;62.16
77017;BME280;65949;53.132;17.930;2024-03-29T07:36:20;99789.99;;;11.00;62.88
77017;BME280;65949;53.132;17.930;2024-03-29T07:38:49;99791.72;;;11.05;62.20
77017;BME280;65949;53.132;17.930;2024-03-29T07:41:16;99799.91;;;11.10;61.64
77017;BME280;65949;53.132;17.930;2024-03-29T07:43:53;99802.52;;;11.16;61.15
77017;BME280;65949;53.132;17.930;2024-03-29T07:46:23;99808.89;;;11.21;61.14
77017;BME280;65949;53.132;17.930;2024-03-29T07:48:50;99808.76;;;11.29;60.80
77017;BME280;65949;53.132;17.930;2024-03-29T07:51:16;99814.20;;;11.36;61.33
77017;BME280;65949;53.132;17.930;2024-03-29T07:53:43;99810.52;;;11.49;61.25
77017;BME280;65949;53.132;17.930;2024-03-29T07:56:10;99805.02;;;11.61;61.17
77017;BME280;65949;53.132;17.930;2024-03-29T07:58:36;99805.55;;;11.70;60.54
77017;BME280;65949;53.132;17.930;2024-03-29T08:01:03;99806.26;;;11.81;60.58
77017;BME280;65949;53.132;17.930;2024-03-29T08:03:29;99804.17;;;11.93;60.52
77017;BME280;65949;53.132;17.930;2024-03-29T08:06:01;99803.01;;;12.05;60.68
77017;BME280;65949;53.132;17.930;2024-03-29T08:08:32;99810.37;;;12.21;60.56
77017;BME280;65949;53.132;17.930;2024-03-29T08:10:59;99812.57;;;12.31;59.41
77017;BME280;65949;53.132;17.930;2024-03-29T08:13:27;99811.61;;;12.36;59.25
77017;BME280;65949;53.132;17.930;2024-03-29T08:15:58;99808.34;;;12.39;58.95
77017;BME280;65949;53.132;17.930;2024-03-29T08:18:26;99809.96;;;12.41;59.41
77017;BME280;65949;53.132;17.930;2024-03-29T08:20:53;99817.44;;;12.49;58.66
77017;BME280;65949;53.132;17.930;2024-03-29T08:23:22;99821.94;;;12.56;58.55
77017;BME280;65949;53.132;17.930;2024-03-29T08:25:48;99835.64;;;12.65;58.74
77017;BME280;65949;53.132;17.930;2024-03-29T08:28:15;99835.23;;;12.77;58.84
77017;BME280;65949;53.132;17.930;2024-03-29T08:30:41;99840.42;;;12.90;57.92
77017;BME280;65949;53.132;17.930;2024-03-29T08:33:08;99835.93;;;12.97;57.47
77017;BME280;65949;53.132;17.930;2024-03-29T08:35:35;99839.06;;;13.01;57.51
77017;BME280;65949;53.132;17.930;2024-03-29T08:38:02;99839.56;;;13.03;56.19
77017;BME280;65949;53.132;17.930;2024-03-29T08:40:29;99833.98;;;13.05;56.54
77017;BME280;65949;53.132;17.930;2024-03-29T08:42:58;99832.96;;;13.09;56.51
77017;BME280;65949;53.132;17.930;2024-03-29T08:45:25;99842.26;;;13.19;56.47
77017;BME280;65949;53.132;17.930;2024-03-29T08:47:51;99846.12;;;13.29;55.53
77017;BME280;65949;53.132;17.930;2024-03-29T08:50:19;99851.31;;;13.26;54.74
77017;BME280;65949;53.132;17.930;2024-03-29T08:52:45;99855.80;;;13.23;55.22
77017;BME280;65949;53.132;17.930;2024-03-29T08:55:12;99853.14;;;13.17;54.52
77017;BME280;65949;53.132;17.930;2024-03-29T08:57:38;99860.80;;;13.14;55.14
77017;BME280;65949;53.132;17.930;2024-03-29T09:00:07;99860.09;;;13.16;54.89
77017;BME280;65949;53.132;17.930;2024-03-29T09:02:34;99863.82;;;13.19;54.56
77017;BME280;65949;53.132;17.930;2024-03-29T09:05:01;99862.13;;;13.23;54.92
77017;BME280;65949;53.132;17.930;2024-03-29T09:07:27;99859.13;;;13.28;53.76
77017;BME280;65949;53.132;17.930;2024-03-29T09:09:54;99859.27;;;13.28;54.55
77017;BME280;65949;53.132;17.930;2024-03-29T09:12:21;99855.82;;;13.37;55.06
77017;BME280;65949;53.132;17.930;2024-03-29T09:14:48;99858.61;;;13.50;54.69
77017;BME280;65949;53.132;17.930;2024-03-29T09:17:14;99866.48;;;13.55;53.53
77017;BME280;65949;53.132;17.930;2024-03-29T09:19:41;99864.20;;;13.53;53.76
77017;BME280;65949;53.132;17.930;2024-03-29T09:22:08;99871.38;;;13.62;53.85
77017;BME280;65949;53.132;17.930;2024-03-29T09:24:34;99860.89;;;13.70;53.16
77017;BME280;65949;53.132;17.930;2024-03-29T09:27:01;99858.56;;;13.77;53.57
77017;BME280;65949;53.132;17.930;2024-03-29T09:29:27;99864.91;;;13.92;53.04
77017;BME280;65949;53.132;17.930;2024-03-29T09:31:54;99867.91;;;14.07;53.53
77017;BME280;65949;53.132;17.930;2024-03-29T09:34:21;99864.55;;;14.22;53.24
77017;BME280;65949;53.132;17.930;2024-03-29T09:36:49;99861.27;;;14.30;52.30
77017;BME280;65949;53.132;17.930;2024-03-29T09:39:16;99871.01;;;14.29;50.77
77017;BME280;65949;53.132;17.930;2024-03-29T09:41:45;99877.89;;;14.19;51.11
77017;BME280;65949;53.132;17.930;2024-03-29T09:44:11;99888.45;;;14.22;51.90
77017;BME280;65949;53.132;17.930;2024-03-29T09:46:38;99897.33;;;14.28;51.42
77017;BME280;65949;53.132;17.930;2024-03-29T09:49:06;99899.80;;;14.33;51.14
77017;BME280;65949;53.132;17.930;2024-03-29T09:51:34;99894.73;;;14.39;51.71
77017;BME280;65949;53.132;17.930;2024-03-29T09:54:01;99891.71;;;14.48;51.43
77017;BME280;65949;53.132;17.930;2024-03-29T09:56:31;99891.92;;;14.59;51.14
77017;BME280;65949;53.132;17.930;2024-03-29T09:58:57;99896.61;;;14.61;50.29
77017;BME280;65949;53.132;17.930;2024-03-29T10:01:24;99897.29;;;14.57;50.21
77017;BME280;65949;53.132;17.930;2024-03-29T10:03:52;99895.95;;;14.51;50.06
77017;BME280;65949;53.132;17.930;2024-03-29T10:06:23;99905.10;;;14.55;50.47
77017;BME280;65949;53.132;17.930;2024-03-29T10:08:50;99910.20;;;14.61;49.94
77017;BME280;65949;53.132;17.930;2024-03-29T10:11:18;99895.51;;;14.66;49.80
77017;BME280;65949;53.132;17.930;2024-03-29T10:13:46;99888.11;;;14.68;49.46
77017;BME280;65949;53.132;17.930;2024-03-29T10:16:13;99889.13;;;14.67;49.48
77017;BME280;65949;53.132;17.930;2024-03-29T10:18:47;99891.35;;;14.67;49.66
77017;BME280;65949;53.132;17.930;2024-03-29T10:21:13;99903.86;;;14.65;49.83
77017;BME280;65949;53.132;17.930;2024-03-29T10:23:41;99902.14;;;14.70;49.90
77017;BME280;65949;53.132;17.930;2024-03-29T10:26:09;99899.20;;;14.75;49.89
77017;BME280;65949;53.132;17.930;2024-03-29T10:28:36;99904.75;;;14.81;49.96
77017;BME280;65949;53.132;17.930;2024-03-29T10:31:04;99893.76;;;14.87;50.04
77017;BME280;65949;53.132;17.930;2024-03-29T10:33:32;99892.36;;;14.95;50.15
77017;BME280;65949;53.132;17.930;2024-03-29T10:36:00;99888.18;;;15.07;49.56
77017;BME280;65949;53.132;17.930;2024-03-29T10:38:27;99888.41;;;15.09;49.20
77017;BME280;65949;53.132;17.930;2024-03-29T10:40:54;99897.68;;;15.14;49.23
77017;BME280;65949;53.132;17.930;2024-03-29T10:43:21;99901.33;;;15.23;48.88
77017;BME280;65949;53.132;17.930;2024-03-29T10:45:48;99903.80;;;15.37;48.75
77017;BME280;65949;53.132;17.930;2024-03-29T10:48:16;99898.48;;;15.48;48.01
77017;BME280;65949;53.132;17.930;2024-03-29T10:50:45;99894.00;;;15.54;48.42
77017;BME280;65949;53.132;17.930;2024-03-29T10:53:12;99890.58;;;15.63;47.60
77017;BME280;65949;53.132;17.930;2024-03-29T10:55:42;99883.01;;;15.66;47.26
77017;BME280;65949;53.132;17.930;2024-03-29T10:58:11;99879.20;;;15.64;46.31
77017;BME280;65949;53.132;17.930;2024-03-29T11:00:47;99876.41;;;15.63;46.75
77017;BME280;65949;53.132;17.930;2024-03-29T11:03:40;99875.63;;;15.69;46.63
77017;BME280;65949;53.132;17.930;2024-03-29T11:06:12;99874.67;;;15.83;46.47
77017;BME280;65949;53.132;17.930;2024-03-29T11:08:43;99881.05;;;15.92;45.73
77017;BME280;65949;53.132;17.930;2024-03-29T11:11:14;99894.30;;;15.97;45.89
77017;BME280;65949;53.132;17.930;2024-03-29T11:13:47;99882.63;;;15.98;44.68
77017;BME280;65949;53.132;17.930;2024-03-29T11:16:15;99876.28;;;15.88;45.16
77017;BME280;65949;53.132;17.930;2024-03-29T11:18:43;99870.98;;;15.82;45.00
77017;BME280;65949;53.132;17.930;2024-03-29T11:21:10;99863.81;;;15.84;44.77
77017;BME280;65949;53.132;17.930;2024-03-29T11:23:39;99863.45;;;15.88;45.13
77017;BME280;65949;53.132;17.930;2024-03-29T11:26:06;99858.72;;;15.97;45.19
77017;BME280;65949;53.132;17.930;2024-03-29T11:28:33;99851.13;;;16.08;44.41
77017;BME280;65949;53.132;17.930;2024-03-29T11:31:06;99852.69;;;16.15;44.43
77017;BME280;65949;53.132;17.930;2024-03-29T11:36:17;99845.55;;;16.28;43.61
77017;BME280;65949;53.132;17.930;2024-03-29T11:38:47;99849.24;;;16.33;44.06
77017;BME280;65949;53.132;17.930;2024-03-29T11:41:16;99857.23;;;16.41;42.37
77017;BME280;65949;53.132;17.930;2024-03-29T11:43:43;99853.54;;;16.43;42.46
77017;BME280;65949;53.132;17.930;2024-03-29T11:46:12;99854.70;;;16.50;42.31
77017;BME280;65949;53.132;17.930;2024-03-29T11:48:40;99864.52;;;16.50;42.09
77017;BME280;65949;53.132;17.930;2024-03-29T11:51:08;99855.77;;;16.46;42.27
77017;BME280;65949;53.132;17.930;2024-03-29T11:53:36;99853.79;;;16.47;42.29
77017;BME280;65949;53.132;17.930;2024-03-29T11:56:03;99851.70;;;16.52;41.68
77017;BME280;65949;53.132;17.930;2024-03-29T11:58:32;99856.86;;;16.68;41.86
77017;BME280;65949;53.132;17.930;2024-03-29T12:01:00;99860.91;;;16.91;42.03
77017;BME280;65949;53.132;17.930;2024-03-29T12:03:29;99854.89;;;17.13;41.21
77017;BME280;65949;53.132;17.930;2024-03-29T12:05:58;99856.05;;;17.26;41.21
77017;BME280;65949;53.132;17.930;2024-03-29T12:08:32;99856.63;;;17.31;40.08
77017;BME280;65949;53.132;17.930;2024-03-29T12:11:00;99863.05;;;17.32;40.72
77017;BME280;65949;53.132;17.930;2024-03-29T12:13:28;99865.16;;;17.43;40.09
77017;BME280;65949;53.132;17.930;2024-03-29T12:15:55;99864.70;;;17.52;40.48
77017;BME280;65949;53.132;17.930;2024-03-29T12:18:22;99867.42;;;17.60;39.92
77017;BME280;65949;53.132;17.930;2024-03-29T12:20:50;99866.65;;;17.67;40.10
77017;BME280;65949;53.132;17.930;2024-03-29T12:23:18;99858.52;;;17.75;38.73
77017;BME280;65949;53.132;17.930;2024-03-29T12:25:46;99863.73;;;17.79;39.02
77017;BME280;65949;53.132;17.930;2024-03-29T12:28:14;99860.80;;;17.89;38.15
77017;BME280;65949;53.132;17.930;2024-03-29T12:30:43;99856.70;;;18.04;38.00
77017;BME280;65949;53.132;17.930;2024-03-29T12:33:18;99856.55;;;18.19;38.12
77017;BME280;65949;53.132;17.930;2024-03-29T12:35:49;99854.53;;;18.32;37.87
77017;BME280;65949;53.132;17.930;2024-03-29T12:38:17;99852.37;;;18.32;37.96
77017;BME280;65949;53.132;17.930;2024-03-29T12:40:48;99854.50;;;18.35;38.04
77017;BME280;65949;53.132;17.930;2024-03-29T12:43:22;99855.42;;;18.52;38.00
77017;BME280;65949;53.132;17.930;2024-03-29T12:45:50;99851.17;;;18.57;37.44
77017;BME280;65949;53.132;17.930;2024-03-29T12:48:19;99840.50;;;18.47;37.58
77017;BME280;65949;53.132;17.930;2024-03-29T12:50:47;99844.70;;;18.51;37.52
77017;BME280;65949;53.132;17.930;2024-03-29T12:53:15;99836.25;;;18.57;37.13
77017;BME280;65949;53.132;17.930;2024-03-29T12:55:46;99826.02;;;18.60;36.90
77017;BME280;65949;53.132;17.930;2024-03-29T12:58:14;99826.52;;;18.55;36.74
77017;BME280;65949;53.132;17.930;2024-03-29T13:00:43;99818.73;;;18.55;37.02